createdAt,value
2019-06-08T00:01:26.525Z,21.67
2019-06-08T00:03:57.094Z,21.57
2019-06-08T00:06:27.810Z,21.51
2019-06-08T00:09:05.304Z,21.46
2019-06-08T00:11:37.663Z,21.45
2019-06-08T00:14:08.010Z,21.47
2019-06-08T00:16:40.437Z,21.47
2019-06-08T00:19:25.830Z,21.45
2019-06-08T00:21:58.475Z,21.42
2019-06-08T00:24:28.962Z,21.37
2019-06-08T00:26:59.827Z,21.30
2019-06-08T00:29:33.096Z,21.29
2019-06-08T00:32:03.688Z,21.24
2019-06-08T00:34:34.072Z,21.17
2019-06-08T00:37:09.467Z,21.10
2019-06-08T00:39:39.573Z,21.04
2019-06-08T00:42:09.809Z,21.01
2019-06-08T00:44:40.073Z,20.95
2019-06-08T00:47:10.731Z,20.86
2019-06-08T00:50:07.382Z,20.82
2019-06-08T00:52:16.935Z,20.87
2019-06-08T00:54:47.518Z,20.86
2019-06-08T00:57:17.999Z,20.86
2019-06-08T00:59:48.241Z,20.81
2019-06-08T01:02:20.378Z,20.75
2019-06-08T01:04:50.987Z,20.77
2019-06-08T01:07:22.057Z,20.83
2019-06-08T01:09:52.721Z,20.84
2019-06-08T01:12:24.595Z,20.81
2019-06-08T01:14:55.228Z,20.70
2019-06-08T01:17:25.535Z,20.59
2019-06-08T01:19:56.170Z,20.53
2019-06-08T01:22:27.725Z,20.44
2019-06-08T01:24:58.191Z,20.38
2019-06-08T01:27:28.479Z,20.23
2019-06-08T01:29:59.023Z,20.12
2019-06-08T01:32:30.562Z,20.04
2019-06-08T01:35:00.870Z,20.07
2019-06-08T01:37:31.433Z,20.05
2019-06-08T01:40:02.851Z,20.02
2019-06-08T01:42:33.437Z,19.92
2019-06-08T01:45:03.967Z,19.86
2019-06-08T01:47:34.541Z,19.84
2019-06-08T01:50:05.164Z,19.79
2019-06-08T01:52:35.541Z,19.72
2019-06-08T01:55:05.977Z,19.60
2019-06-08T01:57:36.267Z,19.52
2019-06-08T02:00:29.098Z,19.51
2019-06-08T02:02:40.584Z,19.60
2019-06-08T02:05:11.423Z,19.58
2019-06-08T02:07:41.873Z,19.60
2019-06-08T02:10:12.633Z,19.62
2019-06-08T02:12:42.984Z,19.71
2019-06-08T02:15:14.764Z,19.72
2019-06-08T02:17:45.856Z,19.62
2019-06-08T02:20:19.340Z,19.65
2019-06-08T02:22:49.881Z,19.58
2019-06-08T02:25:27.310Z,19.60
2019-06-08T02:27:59.344Z,19.66
2019-06-08T02:30:34.075Z,19.70
2019-06-08T02:33:04.121Z,19.68
2019-06-08T02:35:35.427Z,19.69
2019-06-08T02:38:11.876Z,19.73
2019-06-08T02:40:44.220Z,19.74
2019-06-08T02:43:15.272Z,19.80
2019-06-08T02:45:48.792Z,19.84
2019-06-08T02:48:19.497Z,19.90
2019-06-08T02:50:56.915Z,20.03
2019-06-08T02:53:30.168Z,20.06
2019-06-08T02:56:02.507Z,20.03
2019-06-08T02:58:36.929Z,19.94
2019-06-08T03:01:07.857Z,19.85
2019-06-08T03:03:40.291Z,19.79
2019-06-08T03:06:10.981Z,19.69
2019-06-08T03:08:43.934Z,19.62
2019-06-08T03:11:15.809Z,19.60
2019-06-08T03:13:48.665Z,19.55
2019-06-08T03:16:18.972Z,19.48
2019-06-08T03:21:38.335Z,19.43
2019-06-08T03:24:08.719Z,19.43
2019-06-08T03:26:44.284Z,19.49
2019-06-08T03:29:14.645Z,19.50
2019-06-08T03:31:54.383Z,19.53
2019-06-08T03:34:17.157Z,19.61
2019-06-08T03:36:55.217Z,19.72
2019-06-08T03:39:24.312Z,19.81
2019-06-08T03:41:54.608Z,19.80
2019-06-08T03:44:24.897Z,19.88
2019-06-08T03:46:55.155Z,19.96
2019-06-08T03:49:41.004Z,20.05
2019-06-08T03:52:00.250Z,20.09
2019-06-08T03:54:30.531Z,20.12
2019-06-08T03:57:02.388Z,20.52
2019-06-08T03:59:32.902Z,21.72
2019-06-08T04:02:03.488Z,23.51
2019-06-08T04:04:33.772Z,25.03
2019-06-08T04:07:04.155Z,26.00
2019-06-08T04:09:34.723Z,26.40
2019-06-08T04:12:05.271Z,24.82
2019-06-08T04:14:37.708Z,23.06
2019-06-08T04:17:07.901Z,22.91
2019-06-08T04:19:44.659Z,22.22
2019-06-08T04:22:10.247Z,21.75
2019-06-08T04:24:42.322Z,21.98
2019-06-08T04:27:12.838Z,21.59
2019-06-08T04:29:43.977Z,21.19
2019-06-08T04:32:14.747Z,20.93
2019-06-08T04:34:45.965Z,20.65
2019-06-08T04:37:17.125Z,20.41
2019-06-08T04:39:47.405Z,20.26
2019-06-08T04:42:17.781Z,20.18
2019-06-08T04:44:49.416Z,20.18
2019-06-08T04:47:19.651Z,20.19
2019-06-08T04:49:50.325Z,20.19
2019-06-08T04:52:20.874Z,20.19
2019-06-08T04:54:51.172Z,20.17
2019-06-08T04:57:21.764Z,20.12
2019-06-08T04:59:52.060Z,20.10
2019-06-08T05:02:23.146Z,20.21
2019-06-08T05:04:53.474Z,20.28
2019-06-08T05:07:24.070Z,20.24
2019-06-08T05:09:54.458Z,20.19
2019-06-08T05:12:25.333Z,20.08
2019-06-08T05:14:56.030Z,20.02
2019-06-08T05:17:26.370Z,19.98
2019-06-08T05:19:56.660Z,19.90
2019-06-08T05:22:27.205Z,19.80
2019-06-08T05:24:57.580Z,19.80
2019-06-08T05:27:28.170Z,19.86
2019-06-08T05:29:58.838Z,19.85
2019-06-08T05:32:29.092Z,19.91
2019-06-08T05:34:59.674Z,19.96
2019-06-08T05:37:30.054Z,19.98
2019-06-08T05:40:00.314Z,20.02
2019-06-08T05:42:30.641Z,19.97
2019-06-08T05:45:01.013Z,19.95
2019-06-08T05:47:31.350Z,20.11
2019-06-08T05:50:02.813Z,20.15
2019-06-08T05:52:37.978Z,20.16
2019-06-08T05:55:09.503Z,20.16
2019-06-08T05:57:46.322Z,20.05
2019-06-08T06:00:17.124Z,20.09
2019-06-08T06:02:48.917Z,20.13
2019-06-08T06:05:19.601Z,20.25
2019-06-08T06:07:55.388Z,20.33
2019-06-08T06:10:29.811Z,20.38
2019-06-08T06:13:03.482Z,20.40
2019-06-08T06:15:38.007Z,20.40
2019-06-08T06:18:19.905Z,20.38
2019-06-08T06:20:52.683Z,20.32
2019-06-08T06:23:30.078Z,20.28
2019-06-08T06:26:08.972Z,20.31
2019-06-08T06:28:35.222Z,20.39
2019-06-08T06:31:06.373Z,20.48
2019-06-08T06:33:36.732Z,20.49
2019-06-08T06:36:07.037Z,20.51
2019-06-08T06:38:37.275Z,20.55
2019-06-08T06:41:07.617Z,20.56
2019-06-08T06:43:37.884Z,20.46
2019-06-08T06:46:08.190Z,20.24
2019-06-08T06:48:44.003Z,20.04
2019-06-08T06:51:26.290Z,20.01
2019-06-08T06:53:53.107Z,20.02
2019-06-08T06:56:23.669Z,20.24
2019-06-08T06:58:55.827Z,20.41
2019-06-08T07:01:40.668Z,20.48
2019-06-08T07:04:11.766Z,20.70
2019-06-08T07:06:42.149Z,21.03
2019-06-08T07:09:12.947Z,21.19
2019-06-08T07:11:44.434Z,21.20
2019-06-08T07:14:14.724Z,21.08
2019-06-08T07:16:47.794Z,20.93
2019-06-08T07:19:18.258Z,21.19
2019-06-08T07:21:50.243Z,21.24
2019-06-08T07:24:22.699Z,21.20
2019-06-08T07:26:54.543Z,21.13
2019-06-08T07:29:25.485Z,21.13
2019-06-08T07:31:55.861Z,21.29
2019-06-08T07:34:26.462Z,21.49
2019-06-08T07:36:56.964Z,21.54
2019-06-08T07:39:27.943Z,21.71
2019-06-08T07:42:13.317Z,21.71
2019-06-08T07:44:46.758Z,21.60
2019-06-08T07:47:26.924Z,21.65
2019-06-08T07:50:07.640Z,21.82
2019-06-08T07:52:42.755Z,21.89
2019-06-08T07:55:21.370Z,22.03
2019-06-08T07:58:00.443Z,21.87
2019-06-08T08:00:39.981Z,22.10
2019-06-08T08:03:10.776Z,22.14
2019-06-08T08:05:50.386Z,22.07
2019-06-08T08:08:28.851Z,22.18
2019-06-08T08:10:56.809Z,22.30
2019-06-08T08:13:31.513Z,22.26
2019-06-08T08:16:17.551Z,21.97
2019-06-08T08:18:57.595Z,21.83
2019-06-08T08:21:53.333Z,21.63
2019-06-08T08:24:07.754Z,21.36
2019-06-08T08:26:40.268Z,21.32
2019-06-08T08:29:12.224Z,21.38
2019-06-08T08:31:43.239Z,21.61
2019-06-08T08:34:28.405Z,21.97
2019-06-08T08:37:09.525Z,22.09
2019-06-08T08:39:47.326Z,22.03
2019-06-08T08:42:18.713Z,21.93
2019-06-08T08:47:30.738Z,21.81
2019-06-08T08:50:07.420Z,21.50
2019-06-08T08:52:44.703Z,21.29
2019-06-08T08:55:24.340Z,21.14
2019-06-08T08:58:03.922Z,21.03
2019-06-08T09:00:41.184Z,20.87
2019-06-08T09:03:28.984Z,20.75
2019-06-08T09:06:01.352Z,20.67
2019-06-08T09:08:33.057Z,20.66
2019-06-08T09:11:03.906Z,20.65
2019-06-08T09:13:37.749Z,20.61
2019-06-08T09:16:13.121Z,20.61
2019-06-08T09:19:02.471Z,20.55
2019-06-08T09:21:38.381Z,20.54
2019-06-08T09:24:18.451Z,20.68
2019-06-08T09:27:00.179Z,20.81
2019-06-08T09:29:28.873Z,20.85
2019-06-08T09:32:01.692Z,20.94
2019-06-08T09:34:32.124Z,21.28
2019-06-08T09:40:35.284Z,22.04
2019-06-08T09:42:55.423Z,22.49
2019-06-08T09:45:30.537Z,22.82
2019-06-08T09:48:18.210Z,23.03
2019-06-08T09:51:03.931Z,22.92
2019-06-08T09:53:41.934Z,22.68
2019-06-08T09:56:18.304Z,22.44
2019-06-08T09:59:01.336Z,22.57
2019-06-08T10:01:33.319Z,22.75
2019-06-08T10:04:09.629Z,22.58
2019-06-08T10:06:54.321Z,22.66
2019-06-08T10:09:21.470Z,22.76
2019-06-08T10:11:52.063Z,22.97
2019-06-08T10:14:24.452Z,23.05
2019-06-08T10:17:01.228Z,23.15
2019-06-08T10:19:42.090Z,23.39
2019-06-08T10:22:18.385Z,23.50
2019-06-08T10:24:50.877Z,23.10
2019-06-08T10:27:22.722Z,23.15
2019-06-08T10:30:01.257Z,23.38
2019-06-08T10:32:34.482Z,23.44
2019-06-08T10:35:08.055Z,23.37
2019-06-08T10:37:55.081Z,23.35
2019-06-08T10:40:29.864Z,23.13
2019-06-08T10:43:09.493Z,23.25
2019-06-08T10:45:52.550Z,23.34
2019-06-08T10:48:18.030Z,23.37
2019-06-08T10:50:58.550Z,23.50
2019-06-08T10:53:47.515Z,23.63
2019-06-08T10:56:10.300Z,23.74
2019-06-08T10:58:38.852Z,23.95
2019-06-08T11:01:12.914Z,24.10
2019-06-08T11:04:00.295Z,24.19
2019-06-08T11:06:33.163Z,24.24
2019-06-08T11:09:13.197Z,24.09
2019-06-08T11:11:42.321Z,23.98
2019-06-08T11:14:22.369Z,24.09
2019-06-08T11:16:51.769Z,24.20
2019-06-08T11:19:26.379Z,24.20
2019-06-08T11:21:57.969Z,24.14
2019-06-08T11:24:32.281Z,24.19
2019-06-08T11:27:03.561Z,24.28
2019-06-08T11:29:34.193Z,24.41
2019-06-08T11:32:06.558Z,24.55
2019-06-08T11:34:38.304Z,24.78
2019-06-08T11:37:18.611Z,25.00
2019-06-08T11:39:45.223Z,24.75
2019-06-08T11:42:19.226Z,24.73
2019-06-08T11:44:54.853Z,24.61
2019-06-08T11:47:43.525Z,24.46
2019-06-08T11:50:18.273Z,24.71
2019-06-08T11:52:52.735Z,25.02
2019-06-08T11:55:27.998Z,24.84
2019-06-08T11:58:09.786Z,24.88
2019-06-08T12:01:09.956Z,25.03
2019-06-08T12:03:39.363Z,24.88
2019-06-08T12:06:15.344Z,24.84
2019-06-08T12:08:47.349Z,24.96
2019-06-08T12:11:28.393Z,24.96
2019-06-08T12:13:59.452Z,25.18
2019-06-08T12:16:31.137Z,25.29
2019-06-08T12:19:13.219Z,25.20
2019-06-08T12:21:44.436Z,25.41
2019-06-08T12:24:19.135Z,25.35
2019-06-08T12:26:59.945Z,25.51
2019-06-08T12:29:28.412Z,25.44
2019-06-08T12:32:10.476Z,25.20
2019-06-08T12:34:43.481Z,25.12
2019-06-08T12:37:21.408Z,24.99
2019-06-08T12:40:00.910Z,25.26
2019-06-08T12:42:38.001Z,25.33
2019-06-08T12:48:50.437Z,25.09
2019-06-08T12:51:21.805Z,25.03
2019-06-08T12:54:05.157Z,24.90
2019-06-08T12:56:37.788Z,24.59
2019-06-08T12:59:13.825Z,24.84
2019-06-08T13:01:54.070Z,25.30
2019-06-08T13:04:28.632Z,25.76
2019-06-08T13:06:59.606Z,25.91
2019-06-08T13:09:37.927Z,25.45
2019-06-08T13:12:15.120Z,25.45
2019-06-08T13:15:10.129Z,25.47
2019-06-08T13:17:50.548Z,24.99
2019-06-08T13:20:33.708Z,24.84
2019-06-08T13:23:21.664Z,24.88
2019-06-08T13:26:00.229Z,25.12
2019-06-08T13:28:32.382Z,25.05
2019-06-08T13:31:07.869Z,24.92
2019-06-08T13:34:01.135Z,24.73
2019-06-08T13:36:42.889Z,24.79
2019-06-08T13:39:21.178Z,24.94
2019-06-08T13:42:04.460Z,24.88
2019-06-08T13:44:34.476Z,24.87
2019-06-08T13:47:14.317Z,25.01
2019-06-08T13:49:47.613Z,25.15
2019-06-08T13:52:22.453Z,25.29
2019-06-08T13:54:54.921Z,25.42
2019-06-08T13:57:25.536Z,25.50
2019-06-08T13:59:57.818Z,25.58
2019-06-08T14:02:31.672Z,25.35
2019-06-08T14:05:27.737Z,25.07
2019-06-08T14:07:59.157Z,24.87
2019-06-08T14:10:44.280Z,25.06
2019-06-08T14:13:17.408Z,25.50
2019-06-08T14:15:49.115Z,25.72
2019-06-08T14:18:26.321Z,25.88
2019-06-08T14:20:55.206Z,25.97
2019-06-08T14:23:25.724Z,25.92
2019-06-08T14:26:00.170Z,25.84
2019-06-08T14:28:31.010Z,25.75
2019-06-08T14:31:02.192Z,25.80
2019-06-08T14:33:33.973Z,25.90
2019-06-08T14:36:04.944Z,25.99
2019-06-08T14:38:40.982Z,26.00
2019-06-08T14:41:07.716Z,26.00
2019-06-08T14:43:38.373Z,26.04
2019-06-08T14:46:08.767Z,25.88
2019-06-08T14:48:39.138Z,25.90
2019-06-08T14:51:09.734Z,25.84
2019-06-08T14:53:41.859Z,25.81
2019-06-08T14:56:12.284Z,25.45
2019-06-08T14:58:44.823Z,25.34
2019-06-08T15:01:19.446Z,25.53
2019-06-08T15:03:48.222Z,25.63
2019-06-08T15:06:19.399Z,25.73
2019-06-08T15:08:50.335Z,25.60
2019-06-08T15:11:21.327Z,25.57
2019-06-08T15:13:52.229Z,25.90
2019-06-08T15:16:24.024Z,26.14
2019-06-08T15:18:54.466Z,26.00
2019-06-08T15:21:26.512Z,26.07
2019-06-08T15:23:59.926Z,26.13
2019-06-08T15:26:39.615Z,25.91
2019-06-08T15:29:04.806Z,25.62
2019-06-08T15:31:48.136Z,25.24
2019-06-08T15:34:17.789Z,24.83
2019-06-08T15:36:51.641Z,24.64
2019-06-08T15:39:23.380Z,24.67
2019-06-08T15:42:00.206Z,24.86
2019-06-08T15:44:41.386Z,24.80
2019-06-08T15:47:14.227Z,24.71
2019-06-08T15:50:05.221Z,24.85
2019-06-08T15:52:44.764Z,24.79
2019-06-08T15:55:34.454Z,24.89
2019-06-08T15:57:51.311Z,24.84
2019-06-08T16:00:22.976Z,24.64
2019-06-08T16:02:56.629Z,24.49
2019-06-08T16:05:29.645Z,24.41
2019-06-08T16:08:00.210Z,24.38
2019-06-08T16:10:30.800Z,24.42
2019-06-08T16:13:02.189Z,24.23
2019-06-08T16:15:33.402Z,24.20
2019-06-08T16:18:04.088Z,24.07
2019-06-08T16:20:37.498Z,24.01
2019-06-08T16:23:07.988Z,24.02
2019-06-08T16:25:41.271Z,24.04
2019-06-08T16:28:11.858Z,24.02
2019-06-08T16:30:42.781Z,24.12
2019-06-08T16:33:13.566Z,24.19
2019-06-08T16:35:44.384Z,24.24
2019-06-08T16:38:15.283Z,24.23
2019-06-08T16:40:46.219Z,24.28
2019-06-08T16:43:19.585Z,24.24
2019-06-08T16:45:51.834Z,24.23
2019-06-08T16:48:22.100Z,24.28
2019-06-08T16:50:52.750Z,24.32
2019-06-08T16:53:23.660Z,24.31
2019-06-08T16:55:54.513Z,24.38
2019-06-08T16:58:24.842Z,24.38
2019-06-08T17:00:56.927Z,24.38
2019-06-08T17:03:36.913Z,24.41
2019-06-08T17:06:07.419Z,24.48
2019-06-08T17:08:41.700Z,24.48
2019-06-08T17:11:11.578Z,24.42
2019-06-08T17:13:42.171Z,24.36
2019-06-08T17:16:12.458Z,24.29
2019-06-08T17:18:42.972Z,24.22
2019-06-08T17:21:13.433Z,24.14
2019-06-08T17:23:44.024Z,24.07
2019-06-08T17:26:14.629Z,23.96
2019-06-08T17:28:45.019Z,23.95
2019-06-08T17:31:15.382Z,23.97
2019-06-08T17:33:45.687Z,23.92
2019-06-08T17:36:19.438Z,23.85
2019-06-08T17:38:52.492Z,23.83
2019-06-08T17:41:41.998Z,23.82
2019-06-08T17:44:27.129Z,23.72
2019-06-08T17:47:06.438Z,23.64
2019-06-08T17:49:54.226Z,23.60
2019-06-08T17:52:33.274Z,23.59
2019-06-08T17:55:16.210Z,23.62
2019-06-08T17:57:53.679Z,23.64
2019-06-08T18:00:24.692Z,23.68
2019-06-08T18:03:00.540Z,23.65
2019-06-08T18:05:31.554Z,23.62
2019-06-08T18:08:12.465Z,23.65
2019-06-08T18:10:57.541Z,23.60
2019-06-08T18:13:48.368Z,23.56
2019-06-08T18:16:24.038Z,23.51
2019-06-08T18:19:14.602Z,23.44
2019-06-08T18:21:54.679Z,23.37
2019-06-08T18:24:28.148Z,23.33
2019-06-08T18:27:07.770Z,23.30
2019-06-08T18:29:42.939Z,23.28
2019-06-08T18:32:19.750Z,23.25
2019-06-08T18:34:54.315Z,23.25
2019-06-08T18:37:28.435Z,23.21
2019-06-08T18:40:17.716Z,23.14
2019-06-08T18:42:57.622Z,23.15
2019-06-08T18:45:31.681Z,23.10
2019-06-08T18:48:57.807Z,23.08
2019-06-08T18:50:46.099Z,23.02
2019-06-08T18:53:28.954Z,22.96
2019-06-08T18:56:05.277Z,22.92
2019-06-08T18:58:39.727Z,22.88
2019-06-08T19:01:33.620Z,22.79
2019-06-08T19:04:19.318Z,22.71
2019-06-08T19:07:09.401Z,22.64
2019-06-08T19:09:45.988Z,22.60
2019-06-08T19:12:27.746Z,22.56
2019-06-08T19:14:59.689Z,22.52
2019-06-08T19:17:30.424Z,22.47
2019-06-08T19:20:04.989Z,22.42
2019-06-08T19:22:38.522Z,22.39
2019-06-08T19:25:09.717Z,22.34
2019-06-08T19:27:49.116Z,22.28
2019-06-08T19:30:20.129Z,22.20
2019-06-08T19:32:53.218Z,22.16
2019-06-08T19:35:27.383Z,22.10
2019-06-08T19:38:03.022Z,22.05
2019-06-08T19:40:38.820Z,22.00
2019-06-08T19:43:18.879Z,21.94
2019-06-08T19:46:07.230Z,21.89
2019-06-08T19:48:39.691Z,21.83
2019-06-08T19:51:42.847Z,21.78
2019-06-08T19:53:55.119Z,21.73
2019-06-08T19:56:35.530Z,21.66
2019-06-08T19:59:08.344Z,21.59
2019-06-08T20:01:48.009Z,21.58
2019-06-08T20:07:01.122Z,21.54
2019-06-08T20:09:37.488Z,21.51
2019-06-08T20:12:11.910Z,21.45
2019-06-08T20:14:48.005Z,21.40
2019-06-08T20:17:22.903Z,21.36
2019-06-08T20:20:01.233Z,21.34
2019-06-08T20:22:41.803Z,21.30
2019-06-08T20:25:12.505Z,21.27
2019-06-08T20:27:43.538Z,21.23
2019-06-08T20:30:21.205Z,21.19
2019-06-08T20:32:54.550Z,21.14
2019-06-08T20:35:33.061Z,21.12
2019-06-08T20:38:11.519Z,21.09
2019-06-08T20:40:44.047Z,21.07
2019-06-08T20:43:22.961Z,21.06
2019-06-08T20:45:53.521Z,21.02
2019-06-08T20:48:27.551Z,21.00
2019-06-08T20:53:35.341Z,20.95
2019-06-08T20:56:07.982Z,20.94
2019-06-08T20:58:43.355Z,20.95
2019-06-08T21:01:18.038Z,20.95
2019-06-08T21:03:48.579Z,20.94
2019-06-08T21:06:32.446Z,20.94
2019-06-08T21:08:57.617Z,20.92
2019-06-08T21:12:04.221Z,20.88
2019-06-08T21:14:27.264Z,20.86
2019-06-08T21:17:55.381Z,20.85
2019-06-08T21:20:29.780Z,20.83
2019-06-08T21:23:02.142Z,20.77
2019-06-08T21:25:49.643Z,20.75
2019-06-08T21:28:17.049Z,20.72
2019-06-08T21:30:53.347Z,20.71
2019-06-08T21:33:34.948Z,20.72
2019-06-08T21:36:13.357Z,20.68
2019-06-08T21:38:55.690Z,20.66
2019-06-08T21:41:34.065Z,20.61
2019-06-08T21:44:09.442Z,20.59
2019-06-08T21:46:48.722Z,20.56
2019-06-08T21:49:18.336Z,20.52
2019-06-08T21:51:53.024Z,20.49
2019-06-08T21:54:27.229Z,20.45
2019-06-08T21:57:10.580Z,20.41
2019-06-08T21:59:47.351Z,20.35
2019-06-08T22:02:19.142Z,20.31
2019-06-08T22:04:54.660Z,20.28
2019-06-08T22:07:31.667Z,20.21
2019-06-08T22:10:10.550Z,20.13
2019-06-08T22:12:59.289Z,20.09
2019-06-08T22:15:27.080Z,20.02
2019-06-08T22:18:00.126Z,19.97
2019-06-08T22:20:39.207Z,19.98
2019-06-08T22:23:17.892Z,19.97
2019-06-08T22:25:48.918Z,19.95
2019-06-08T22:28:26.994Z,19.90
2019-06-08T22:30:59.900Z,19.88
2019-06-08T22:33:38.236Z,19.83
2019-06-08T22:36:16.998Z,19.78
2019-06-08T22:38:58.900Z,19.74
2019-06-08T22:41:28.121Z,19.72
2019-06-08T22:44:03.167Z,19.75
2019-06-08T22:46:53.809Z,19.75
2019-06-08T22:49:24.748Z,19.72
2019-06-08T22:52:01.326Z,19.64
2019-06-08T22:54:42.940Z,19.59
2019-06-08T22:57:13.153Z,19.56
2019-06-08T22:59:47.737Z,19.55
2019-06-08T23:02:20.837Z,19.54
2019-06-08T23:05:04.194Z,19.52
2019-06-08T23:07:45.868Z,19.47
2019-06-08T23:10:17.479Z,19.45
2019-06-08T23:12:51.331Z,19.45
2019-06-08T23:15:26.827Z,19.45
2019-06-08T23:17:59.551Z,19.42
2019-06-08T23:21:04.341Z,19.42
2019-06-08T23:23:19.201Z,19.38
2019-06-08T23:25:51.104Z,19.34
2019-06-08T23:28:22.178Z,19.29
2019-06-08T23:31:25.535Z,19.27
2019-06-08T23:34:03.604Z,19.20
2019-06-08T23:37:11.976Z,19.15
2019-06-08T23:39:18.309Z,19.07
2019-06-08T23:41:52.241Z,19.00
2019-06-08T23:44:28.151Z,18.96
2019-06-08T23:47:01.240Z,18.91
2019-06-08T23:49:33.285Z,18.89
2019-06-08T23:52:09.658Z,18.81
2019-06-08T23:54:44.040Z,18.68
2019-06-08T23:57:15.061Z,18.56
2019-06-08T23:59:47.879Z,18.46
